createdAt,value
2019-03-19T00:01:08.822Z,4.78
2019-03-19T00:03:38.596Z,4.77
2019-03-19T00:06:08.366Z,4.70
2019-03-19T00:08:38.235Z,4.71
2019-03-19T00:11:08.006Z,4.68
2019-03-19T00:13:37.777Z,4.70
2019-03-19T00:16:07.641Z,4.65
2019-03-19T00:18:37.403Z,4.59
2019-03-19T00:21:07.168Z,4.56
2019-03-19T00:23:37.030Z,4.55
2019-03-19T00:26:06.882Z,4.52
2019-03-19T00:28:38.953Z,4.47
2019-03-19T00:31:08.105Z,4.49
2019-03-19T00:33:37.881Z,4.43
2019-03-19T00:36:07.652Z,4.46
2019-03-19T00:38:37.412Z,4.51
2019-03-19T00:41:07.267Z,4.48
2019-03-19T00:43:37.045Z,4.43
2019-03-19T00:46:06.806Z,4.42
2019-03-19T00:48:36.568Z,4.44
2019-03-19T00:51:06.342Z,4.45
2019-03-19T00:53:36.111Z,4.46
2019-03-19T00:56:05.878Z,4.43
2019-03-19T00:58:35.646Z,4.43
2019-03-19T01:01:05.518Z,4.47
2019-03-19T01:03:35.281Z,4.46
2019-03-19T01:06:05.072Z,4.42
2019-03-19T01:08:34.829Z,4.33
2019-03-19T01:11:04.623Z,4.31
2019-03-19T01:13:34.385Z,4.30
2019-03-19T01:16:04.178Z,4.31
2019-03-19T01:18:33.945Z,4.27
2019-03-19T01:21:03.718Z,4.19
2019-03-19T01:23:33.480Z,4.16
2019-03-19T01:26:03.219Z,4.13
2019-03-19T01:28:32.978Z,4.18
2019-03-19T01:31:02.737Z,4.17
2019-03-19T01:33:32.473Z,4.19
2019-03-19T01:36:02.210Z,4.24
2019-03-19T01:38:31.977Z,4.31
2019-03-19T01:41:01.718Z,4.28
2019-03-19T01:43:31.487Z,4.30
2019-03-19T01:46:01.247Z,4.30
2019-03-19T01:48:31.006Z,4.28
2019-03-19T01:51:00.765Z,4.31
2019-03-19T01:53:30.545Z,4.30
2019-03-19T01:56:05.066Z,4.27
2019-03-19T01:58:31.768Z,4.29
2019-03-19T02:01:01.537Z,4.24
2019-03-19T02:03:31.302Z,4.22
2019-03-19T02:06:01.062Z,4.24
2019-03-19T02:08:30.926Z,4.23
2019-03-19T02:11:00.685Z,4.26
2019-03-19T02:13:30.647Z,4.24
2019-03-19T02:16:00.423Z,4.19
2019-03-19T02:18:30.197Z,4.17
2019-03-19T02:21:00.006Z,4.18
2019-03-19T02:23:29.774Z,4.12
2019-03-19T02:25:59.532Z,4.06
2019-03-19T02:28:29.295Z,4.04
2019-03-19T02:30:59.058Z,4.05
2019-03-19T02:33:28.826Z,4.01
2019-03-19T02:35:58.593Z,3.99
2019-03-19T02:38:28.345Z,3.95
2019-03-19T02:40:58.106Z,3.94
2019-03-19T02:43:27.906Z,3.88
2019-03-19T02:45:57.669Z,3.84
2019-03-19T02:48:27.530Z,3.83
2019-03-19T02:50:57.303Z,3.87
2019-03-19T02:53:29.639Z,3.83
2019-03-19T02:55:58.543Z,3.87
2019-03-19T02:58:28.306Z,3.86
2019-03-19T03:00:58.075Z,3.85
2019-03-19T03:03:27.833Z,3.86
2019-03-19T03:05:57.600Z,3.85
2019-03-19T03:08:27.372Z,3.86
2019-03-19T03:10:57.142Z,3.90
2019-03-19T03:13:26.903Z,3.95
2019-03-19T03:15:56.671Z,3.99
2019-03-19T03:18:26.436Z,4.01
2019-03-19T03:20:56.195Z,4.02
2019-03-19T03:23:25.953Z,4.07
2019-03-19T03:25:55.717Z,3.99
2019-03-19T03:28:25.515Z,4.03
2019-03-19T03:30:55.276Z,4.09
2019-03-19T03:33:25.063Z,4.08
2019-03-19T03:35:54.825Z,4.10
2019-03-19T03:38:24.594Z,4.08
2019-03-19T03:40:54.378Z,4.11
2019-03-19T03:43:24.108Z,4.13
2019-03-19T03:45:53.878Z,4.10
2019-03-19T03:48:23.594Z,4.08
2019-03-19T03:50:53.357Z,4.07
2019-03-19T03:53:23.081Z,4.08
2019-03-19T03:55:52.863Z,4.12
2019-03-19T03:58:22.700Z,4.10
2019-03-19T04:00:52.465Z,4.09
2019-03-19T04:03:22.228Z,4.15
2019-03-19T04:05:51.996Z,4.15
2019-03-19T04:08:21.769Z,4.17
2019-03-19T04:10:51.656Z,4.17
2019-03-19T04:13:21.415Z,4.21
2019-03-19T04:15:51.186Z,4.24
2019-03-19T04:18:20.954Z,4.29
2019-03-19T04:20:50.729Z,4.29
2019-03-19T04:23:20.541Z,4.27
2019-03-19T04:25:50.325Z,4.27
2019-03-19T04:28:20.088Z,4.31
2019-03-19T04:30:49.866Z,4.31
2019-03-19T04:33:19.633Z,4.33
2019-03-19T04:35:49.396Z,4.31
2019-03-19T04:38:19.174Z,4.27
2019-03-19T04:40:49.703Z,4.26
2019-03-19T04:43:19.739Z,4.27
2019-03-19T04:45:49.509Z,4.30
2019-03-19T04:48:20.256Z,4.24
2019-03-19T04:50:50.130Z,4.27
2019-03-19T04:53:19.906Z,4.27
2019-03-19T04:55:49.663Z,4.28
2019-03-19T04:58:19.433Z,4.28
2019-03-19T05:00:49.195Z,4.22
2019-03-19T05:03:18.965Z,4.28
2019-03-19T05:05:48.747Z,4.27
2019-03-19T05:08:18.515Z,4.30
2019-03-19T05:10:48.292Z,4.29
2019-03-19T05:13:18.063Z,4.28
2019-03-19T05:15:47.830Z,4.29
2019-03-19T05:18:17.589Z,4.34
2019-03-19T05:20:47.366Z,4.35
2019-03-19T05:23:17.125Z,4.34
2019-03-19T05:25:46.893Z,4.37
2019-03-19T05:28:16.662Z,4.45
2019-03-19T05:30:46.431Z,4.37
2019-03-19T05:33:16.194Z,4.43
2019-03-19T05:35:45.952Z,4.43
2019-03-19T05:38:15.727Z,4.46
2019-03-19T05:40:45.494Z,4.49
2019-03-19T05:43:18.285Z,4.46
2019-03-19T05:45:48.078Z,4.40
2019-03-19T05:48:17.833Z,4.42
2019-03-19T05:50:47.631Z,4.43
2019-03-19T05:53:17.388Z,4.45
2019-03-19T05:55:47.162Z,4.49
2019-03-19T05:58:16.926Z,4.49
2019-03-19T06:00:46.836Z,4.50
2019-03-19T06:03:16.598Z,4.56
2019-03-19T06:05:46.340Z,4.61
2019-03-19T06:08:16.102Z,4.60
2019-03-19T06:10:45.842Z,4.67
2019-03-19T06:13:15.618Z,4.69
2019-03-19T06:15:45.342Z,4.70
2019-03-19T06:18:15.108Z,4.74
2019-03-19T06:20:44.955Z,4.68
2019-03-19T06:23:14.713Z,4.77
2019-03-19T06:25:44.436Z,4.75
2019-03-19T06:28:14.199Z,4.73
2019-03-19T06:30:43.943Z,4.69
2019-03-19T06:33:13.696Z,4.68
2019-03-19T06:35:43.424Z,4.71
2019-03-19T06:38:13.199Z,4.76
2019-03-19T06:40:42.961Z,4.81
2019-03-19T06:43:12.734Z,4.84
2019-03-19T06:45:42.507Z,4.86
2019-03-19T06:48:12.264Z,4.90
2019-03-19T06:50:45.426Z,4.90
2019-03-19T06:53:13.507Z,4.88
2019-03-19T06:55:43.278Z,4.96
2019-03-19T06:58:13.055Z,4.92
2019-03-19T07:00:42.826Z,4.95
2019-03-19T07:03:12.597Z,4.94
2019-03-19T07:05:42.373Z,4.99
2019-03-19T07:08:12.128Z,4.99
2019-03-19T07:10:41.900Z,5.06
2019-03-19T07:13:11.677Z,5.02
2019-03-19T07:15:41.472Z,5.13
2019-03-19T07:18:11.264Z,5.24
2019-03-19T07:20:41.033Z,5.42
2019-03-19T07:23:10.808Z,5.51
2019-03-19T07:25:40.569Z,5.58
2019-03-19T07:28:21.444Z,5.65
2019-03-19T07:30:41.822Z,5.75
2019-03-19T07:33:11.579Z,5.82
2019-03-19T07:35:41.351Z,5.86
2019-03-19T07:38:11.126Z,5.93
2019-03-19T07:40:40.897Z,5.75
2019-03-19T07:43:10.669Z,5.78
2019-03-19T07:45:40.434Z,5.83
2019-03-19T07:48:10.210Z,5.95
2019-03-19T07:50:39.987Z,6.11
2019-03-19T07:53:09.759Z,6.22
2019-03-19T07:55:39.535Z,6.00
2019-03-19T07:58:09.303Z,6.05
2019-03-19T08:00:39.099Z,6.18
2019-03-19T08:03:16.174Z,6.13
2019-03-19T08:05:40.341Z,6.19
2019-03-19T08:08:10.226Z,6.27
2019-03-19T08:10:39.985Z,6.28
2019-03-19T08:13:09.776Z,6.22
2019-03-19T08:15:39.543Z,6.10
2019-03-19T08:18:09.342Z,6.06
2019-03-19T08:20:39.116Z,6.06
2019-03-19T08:23:09.166Z,6.03
2019-03-19T08:25:38.994Z,5.90
2019-03-19T08:28:08.742Z,5.87
2019-03-19T08:30:38.512Z,5.85
2019-03-19T08:33:08.238Z,6.01
2019-03-19T08:35:38.213Z,5.95
2019-03-19T08:38:08.061Z,5.91
2019-03-19T08:40:37.825Z,5.91
2019-03-19T08:43:07.594Z,5.72
2019-03-19T08:45:37.361Z,5.82
2019-03-19T08:48:07.423Z,5.92
2019-03-19T08:50:37.198Z,5.85
2019-03-19T08:53:06.977Z,6.06
2019-03-19T08:55:36.749Z,6.13
2019-03-19T08:58:06.513Z,6.09
2019-03-19T09:00:36.303Z,6.12
2019-03-19T09:03:06.065Z,6.09
2019-03-19T09:05:35.831Z,6.07
2019-03-19T09:08:05.585Z,6.08
2019-03-19T09:10:35.430Z,6.05
2019-03-19T09:13:05.649Z,6.06
2019-03-19T09:15:35.389Z,6.11
2019-03-19T09:18:05.182Z,6.22
2019-03-19T09:20:35.016Z,6.28
2019-03-19T09:23:04.780Z,6.42
2019-03-19T09:25:34.541Z,6.03
2019-03-19T09:28:04.325Z,6.08
2019-03-19T09:30:34.135Z,6.22
2019-03-19T09:33:03.900Z,6.17
2019-03-19T09:35:33.668Z,6.30
2019-03-19T09:38:03.419Z,6.45
2019-03-19T09:40:33.317Z,6.60
2019-03-19T09:43:03.038Z,6.46
2019-03-19T09:45:32.804Z,6.58
2019-03-19T09:48:02.574Z,6.55
2019-03-19T09:50:32.449Z,6.88
2019-03-19T09:53:02.212Z,7.01
2019-03-19T09:55:31.991Z,7.18
2019-03-19T09:58:01.783Z,7.03
2019-03-19T10:00:31.513Z,7.14
2019-03-19T10:03:01.309Z,7.03
2019-03-19T10:05:31.096Z,7.04
2019-03-19T10:08:00.860Z,6.93
2019-03-19T10:10:30.770Z,7.08
2019-03-19T10:13:00.590Z,7.12
2019-03-19T10:15:30.387Z,7.20
2019-03-19T10:18:00.120Z,7.33
2019-03-19T10:20:30.319Z,7.53
2019-03-19T10:23:00.200Z,7.62
2019-03-19T10:25:29.995Z,7.57
2019-03-19T10:27:59.761Z,7.64
2019-03-19T10:30:29.520Z,7.72
2019-03-19T10:32:59.293Z,7.81
2019-03-19T10:35:29.021Z,7.90
2019-03-19T10:37:58.903Z,7.88
2019-03-19T10:40:28.634Z,7.90
2019-03-19T10:42:58.403Z,8.07
2019-03-19T10:45:28.173Z,7.82
2019-03-19T10:47:57.961Z,7.83
2019-03-19T10:50:28.347Z,7.79
2019-03-19T10:52:58.156Z,7.81
2019-03-19T10:55:27.936Z,8.07
2019-03-19T10:57:57.723Z,8.21
2019-03-19T11:00:28.011Z,8.04
2019-03-19T11:02:57.744Z,8.28
2019-03-19T11:05:27.543Z,8.36
2019-03-19T11:07:57.282Z,8.38
2019-03-19T11:10:27.043Z,8.45
2019-03-19T11:12:56.806Z,8.15
2019-03-19T11:15:27.511Z,8.16
2019-03-19T11:17:57.274Z,7.99
2019-03-19T11:20:27.147Z,7.91
2019-03-19T11:22:57.021Z,7.83
2019-03-19T11:25:30.511Z,7.49
2019-03-19T11:28:00.274Z,7.57
2019-03-19T11:30:31.063Z,7.63
2019-03-19T11:33:00.840Z,7.53
2019-03-19T11:35:30.715Z,7.55
2019-03-19T11:38:00.478Z,7.51
2019-03-19T11:40:30.566Z,7.52
2019-03-19T11:43:00.392Z,7.57
2019-03-19T11:45:30.172Z,7.66
2019-03-19T11:47:59.935Z,7.56
2019-03-19T11:50:33.184Z,7.42
2019-03-19T11:53:02.373Z,7.40
2019-03-19T11:55:32.113Z,7.49
2019-03-19T11:58:01.888Z,7.62
2019-03-19T12:00:36.259Z,7.55
2019-03-19T12:03:14.777Z,7.78
2019-03-19T12:05:38.017Z,7.78
2019-03-19T12:08:08.394Z,7.65
2019-03-19T12:10:38.166Z,7.68
2019-03-19T12:13:08.212Z,8.03
2019-03-19T12:15:37.973Z,8.30
2019-03-19T12:18:07.738Z,8.52
2019-03-19T12:20:37.497Z,8.73
2019-03-19T12:23:07.226Z,8.71
2019-03-19T12:25:37.017Z,9.16
2019-03-19T12:28:07.157Z,9.34
2019-03-19T12:30:36.951Z,9.77
2019-03-19T12:33:06.716Z,9.97
2019-03-19T12:35:36.496Z,10.05
2019-03-19T12:38:06.357Z,10.23
2019-03-19T12:40:37.493Z,10.15
2019-03-19T12:43:07.580Z,10.35
2019-03-19T12:45:37.304Z,10.35
2019-03-19T12:48:07.093Z,10.32
2019-03-19T12:50:37.059Z,10.39
2019-03-19T12:53:06.853Z,10.36
2019-03-19T12:55:36.630Z,10.46
2019-03-19T12:58:06.394Z,10.58
2019-03-19T13:00:36.163Z,10.58
2019-03-19T13:03:05.901Z,10.31
2019-03-19T13:05:35.687Z,9.84
2019-03-19T13:08:05.423Z,9.78
2019-03-19T13:10:35.195Z,9.60
2019-03-19T13:13:04.967Z,9.61
2019-03-19T13:15:34.761Z,9.52
2019-03-19T13:18:04.626Z,9.54
2019-03-19T13:20:34.523Z,9.37
2019-03-19T13:23:04.285Z,9.18
2019-03-19T13:25:34.071Z,8.98
2019-03-19T13:28:03.836Z,8.77
2019-03-19T13:30:44.066Z,8.74
2019-03-19T13:33:05.269Z,8.78
2019-03-19T13:35:35.002Z,8.76
2019-03-19T13:38:04.901Z,8.70
2019-03-19T13:40:34.627Z,8.49
2019-03-19T13:43:04.399Z,8.33
2019-03-19T13:45:34.169Z,8.23
2019-03-19T13:48:03.943Z,8.09
2019-03-19T13:50:33.732Z,8.02
2019-03-19T13:53:03.474Z,8.14
2019-03-19T13:55:33.275Z,8.25
2019-03-19T13:58:03.024Z,8.24
2019-03-19T14:00:32.846Z,8.40
2019-03-19T14:03:02.678Z,8.49
2019-03-19T14:05:32.559Z,8.49
2019-03-19T14:08:02.362Z,8.52
2019-03-19T14:10:32.185Z,8.43
2019-03-19T14:13:01.942Z,8.53
2019-03-19T14:15:31.686Z,8.49
2019-03-19T14:18:01.486Z,8.55
2019-03-19T14:20:31.270Z,8.61
2019-03-19T14:23:01.052Z,8.36
2019-03-19T14:25:30.823Z,8.13
2019-03-19T14:28:00.568Z,8.18
2019-03-19T14:30:30.346Z,8.17
2019-03-19T14:33:00.085Z,8.28
2019-03-19T14:35:37.193Z,8.32
2019-03-19T14:38:01.327Z,8.50
2019-03-19T14:40:31.220Z,8.60
2019-03-19T14:43:01.550Z,8.64
2019-03-19T14:45:31.541Z,8.75
2019-03-19T14:48:01.306Z,8.78
2019-03-19T14:50:31.190Z,8.70
2019-03-19T14:53:00.960Z,8.68
2019-03-19T14:55:30.777Z,8.73
2019-03-19T14:58:00.547Z,8.70
2019-03-19T15:00:30.642Z,8.76
2019-03-19T15:03:00.402Z,8.76
2019-03-19T15:05:30.502Z,8.77
2019-03-19T15:08:00.320Z,8.78
2019-03-19T15:10:31.559Z,8.68
2019-03-19T15:13:01.336Z,8.70
2019-03-19T15:15:31.344Z,8.68
2019-03-19T15:18:01.165Z,8.68
2019-03-19T15:20:30.929Z,8.67
2019-03-19T15:23:00.704Z,8.66
2019-03-19T15:25:30.520Z,8.58
2019-03-19T15:28:00.469Z,8.63
2019-03-19T15:30:30.235Z,8.58
2019-03-19T15:33:00.016Z,8.59
2019-03-19T15:35:29.820Z,8.50
2019-03-19T15:37:59.559Z,8.45
2019-03-19T15:40:29.347Z,8.45
2019-03-19T15:43:00.973Z,8.47
2019-03-19T15:45:31.450Z,8.40
2019-03-19T15:48:01.572Z,8.35
2019-03-19T15:50:31.369Z,8.33
2019-03-19T15:53:01.119Z,8.33
2019-03-19T15:55:30.909Z,8.21
2019-03-19T15:58:00.680Z,8.22
2019-03-19T16:00:30.463Z,8.15
2019-03-19T16:03:00.731Z,8.04
2019-03-19T16:05:30.958Z,7.91
2019-03-19T16:08:00.743Z,7.81
2019-03-19T16:10:30.575Z,7.78
2019-03-19T16:13:00.782Z,7.73
2019-03-19T16:15:30.533Z,7.67
2019-03-19T16:18:00.440Z,7.58
2019-03-19T16:20:38.955Z,7.54
2019-03-19T16:23:08.817Z,7.47
2019-03-19T16:25:38.633Z,7.32
2019-03-19T16:28:08.704Z,7.35
2019-03-19T16:30:38.503Z,7.33
2019-03-19T16:33:08.284Z,7.32
2019-03-19T16:35:38.056Z,7.31
2019-03-19T16:38:07.853Z,7.26
2019-03-19T16:40:37.619Z,7.23
2019-03-19T16:43:07.405Z,7.21
2019-03-19T16:45:37.174Z,7.18
2019-03-19T16:48:06.911Z,7.17
2019-03-19T16:50:36.804Z,7.18
2019-03-19T16:53:06.543Z,7.10
2019-03-19T16:55:36.317Z,7.11
2019-03-19T16:58:06.090Z,7.09
2019-03-19T17:00:35.879Z,7.02
2019-03-19T17:03:05.652Z,7.04
2019-03-19T17:05:35.461Z,6.99
2019-03-19T17:08:05.232Z,6.96
2019-03-19T17:10:35.018Z,6.82
2019-03-19T17:13:05.004Z,6.79
2019-03-19T17:15:34.796Z,6.74
2019-03-19T17:18:04.608Z,6.68
2019-03-19T17:20:34.343Z,6.60
2019-03-19T17:23:04.118Z,6.52
2019-03-19T17:25:33.891Z,6.48
2019-03-19T17:28:03.791Z,6.43
2019-03-19T17:30:35.217Z,6.41
2019-03-19T17:33:05.076Z,6.32
2019-03-19T17:35:34.869Z,6.24
2019-03-19T17:38:04.671Z,6.13
2019-03-19T17:40:41.331Z,6.06
2019-03-19T17:43:05.937Z,5.99
2019-03-19T17:45:35.935Z,5.88
2019-03-19T17:48:15.696Z,5.78
2019-03-19T17:50:39.735Z,5.71
2019-03-19T17:53:09.648Z,5.63
2019-03-19T17:55:39.431Z,5.58
2019-03-19T17:58:09.260Z,5.55
2019-03-19T18:00:46.413Z,5.45
2019-03-19T18:03:16.227Z,5.46
2019-03-19T18:05:46.012Z,5.40
2019-03-19T18:08:15.793Z,5.39
2019-03-19T18:10:45.708Z,5.29
2019-03-19T18:13:15.452Z,5.27
2019-03-19T18:15:49.998Z,5.22
2019-03-19T18:18:46.355Z,5.19
2019-03-19T18:21:13.793Z,5.16
2019-03-19T18:23:54.183Z,5.10
2019-03-19T18:26:41.917Z,5.04
2019-03-19T18:29:12.856Z,5.02
2019-03-19T18:31:42.755Z,4.99
2019-03-19T18:34:12.716Z,4.91
2019-03-19T18:36:42.573Z,4.84
2019-03-19T18:39:12.369Z,4.87
2019-03-19T18:41:42.605Z,4.85
2019-03-19T18:44:37.005Z,4.85
2019-03-19T18:46:57.409Z,4.78
2019-03-19T18:49:29.120Z,4.78
2019-03-19T18:51:59.038Z,4.79
2019-03-19T18:54:28.951Z,4.74
2019-03-19T18:56:58.788Z,4.73
2019-03-19T18:59:28.578Z,4.70
2019-03-19T19:02:01.428Z,4.68
2019-03-19T19:04:36.164Z,4.62
2019-03-19T19:07:07.405Z,4.54
2019-03-19T19:09:38.322Z,4.52
2019-03-19T19:12:08.181Z,4.54
2019-03-19T19:14:38.728Z,4.53
2019-03-19T19:17:09.306Z,4.50
2019-03-19T19:19:39.989Z,4.52
2019-03-19T19:22:10.304Z,4.49
2019-03-19T19:24:40.899Z,4.44
2019-03-19T19:27:11.440Z,4.47
2019-03-19T19:29:41.682Z,4.45
2019-03-19T19:32:12.170Z,4.43
2019-03-19T19:34:43.103Z,4.32
2019-03-19T19:37:28.146Z,4.31
2019-03-19T19:39:49.923Z,4.35
2019-03-19T19:42:19.861Z,4.41
2019-03-19T19:44:51.831Z,4.46
2019-03-19T19:47:28.873Z,4.45
2019-03-19T19:49:59.342Z,4.46
2019-03-19T19:52:29.874Z,4.41
2019-03-19T19:55:00.364Z,4.37
2019-03-19T19:57:30.939Z,4.36
2019-03-19T20:00:02.475Z,4.35
2019-03-19T20:02:33.193Z,4.32
2019-03-19T20:05:03.739Z,4.32
2019-03-19T20:07:35.917Z,4.21
2019-03-19T20:10:11.879Z,4.19
2019-03-19T20:12:41.969Z,4.18
2019-03-19T20:15:13.723Z,4.10
2019-03-19T20:17:44.212Z,4.09
2019-03-19T20:20:17.604Z,4.00
2019-03-19T20:22:47.980Z,4.02
2019-03-19T20:25:18.987Z,3.94
2019-03-19T20:27:49.413Z,3.73
2019-03-19T20:30:25.740Z,3.64
2019-03-19T20:32:56.588Z,3.64
2019-03-19T20:35:27.455Z,3.62
2019-03-19T20:37:58.134Z,3.74
2019-03-19T20:40:29.821Z,3.58
2019-03-19T20:43:01.462Z,3.54
2019-03-19T20:45:32.205Z,3.46
2019-03-19T20:48:02.163Z,3.38
2019-03-19T20:50:34.895Z,3.29
2019-03-19T20:53:07.702Z,3.26
2019-03-19T20:55:38.338Z,3.19
2019-03-19T20:58:09.410Z,3.16
2019-03-19T21:00:39.962Z,3.09
2019-03-19T21:03:10.332Z,3.13
2019-03-19T21:05:40.994Z,3.05
2019-03-19T21:08:11.740Z,3.01
2019-03-19T21:10:43.564Z,2.95
2019-03-19T21:13:15.590Z,2.91
2019-03-19T21:15:48.004Z,2.89
2019-03-19T21:18:24.285Z,2.76
2019-03-19T21:20:55.382Z,2.72
2019-03-19T21:23:26.552Z,2.71
2019-03-19T21:25:57.109Z,2.68
2019-03-19T21:28:27.543Z,2.64
2019-03-19T21:30:57.958Z,2.61
2019-03-19T21:33:28.010Z,2.57
2019-03-19T21:35:58.952Z,2.58
2019-03-19T21:38:29.707Z,2.64
2019-03-19T21:41:01.143Z,2.66
2019-03-19T21:43:31.378Z,2.64
2019-03-19T21:46:05.202Z,2.53
2019-03-19T21:48:38.387Z,2.52
2019-03-19T21:51:10.719Z,2.49
2019-03-19T21:54:14.600Z,2.40
2019-03-19T21:56:57.806Z,2.42
2019-03-19T21:59:31.696Z,2.34
2019-03-19T22:02:05.375Z,2.27
2019-03-19T22:04:46.392Z,2.20
2019-03-19T22:07:59.306Z,2.12
2019-03-19T22:10:29.582Z,2.12
2019-03-19T22:13:00.025Z,1.98
2019-03-19T22:18:34.201Z,1.82
2019-03-19T22:21:03.985Z,1.79
2019-03-19T22:23:33.865Z,1.72
2019-03-19T22:26:03.651Z,1.60
2019-03-19T22:28:33.406Z,1.57
2019-03-19T22:31:03.212Z,1.57
2019-03-19T22:33:33.573Z,1.61
2019-03-19T22:36:03.755Z,1.69
2019-03-19T22:38:33.530Z,1.70
2019-03-19T22:41:03.319Z,1.68
2019-03-19T22:43:33.106Z,1.75
2019-03-19T22:46:02.883Z,1.79
2019-03-19T22:48:32.663Z,1.71
2019-03-19T22:51:02.414Z,1.68
2019-03-19T22:53:32.241Z,1.63
2019-03-19T22:56:01.993Z,1.61
2019-03-19T22:58:31.773Z,1.65
2019-03-19T23:01:01.953Z,1.57
2019-03-19T23:03:31.757Z,1.59
2019-03-19T23:06:01.529Z,1.49
2019-03-19T23:08:31.301Z,1.53
2019-03-19T23:11:01.079Z,1.51
2019-03-19T23:13:30.822Z,1.46
2019-03-19T23:16:00.641Z,1.41
2019-03-19T23:18:30.402Z,1.38
2019-03-19T23:21:00.214Z,1.37
2019-03-19T23:23:29.951Z,1.37
2019-03-19T23:25:59.774Z,1.31
2019-03-19T23:28:29.518Z,1.31
2019-03-19T23:30:59.288Z,1.36
2019-03-19T23:33:29.073Z,1.30
2019-03-19T23:35:58.888Z,1.31
2019-03-19T23:38:28.677Z,1.30
2019-03-19T23:40:58.469Z,1.27
2019-03-19T23:43:28.241Z,1.30
2019-03-19T23:45:57.999Z,1.31
2019-03-19T23:48:27.813Z,1.29
2019-03-19T23:50:57.593Z,1.33
2019-03-19T23:53:27.378Z,1.29
2019-03-19T23:55:57.150Z,1.24
2019-03-19T23:58:26.893Z,1.23
